sensor_id;sensor_type;location;lat;lon;timestamp;temperature;humidity
58582;DHT22;44361;51.476;5.700;2022-09-19T00:01:23;8.30;99.90
58582;DHT22;44361;51.476;5.700;2022-09-19T00:03:57;8.30;99.90
58582;DHT22;44361;51.476;5.700;2022-09-19T00:06:25;8.30;99.90
58582;DHT22;44361;51.476;5.700;2022-09-19T00:08:52;8.30;99.90
58582;DHT22;44361;51.476;5.700;2022-09-19T00:11:19;8.10;99.90
58582;DHT22;44361;51.476;5.700;2022-09-19T00:13:45;8.10;99.90
58582;DHT22;44361;51.476;5.700;2022-09-19T00:18:49;8.00;99.90
58582;DHT22;44361;51.476;5.700;2022-09-19T00:21:35;8.00;99.90
58582;DHT22;44361;51.476;5.700;2022-09-19T00:24:01;8.00;99.90
58582;DHT22;44361;51.476;5.700;2022-09-19T00:26:46;8.00;99.90
58582;DHT22;44361;51.476;5.700;2022-09-19T00:29:13;8.00;99.90
58582;DHT22;44361;51.476;5.700;2022-09-19T00:31:41;8.10;99.90
58582;DHT22;44361;51.476;5.700;2022-09-19T00:34:08;8.10;99.90
58582;DHT22;44361;51.476;5.700;2022-09-19T00:36:35;8.10;99.90
58582;DHT22;44361;51.476;5.700;2022-09-19T00:39:01;8.10;99.90
58582;DHT22;44361;51.476;5.700;2022-09-19T00:41:26;8.10;99.90
58582;DHT22;44361;51.476;5.700;2022-09-19T00:43:54;8.10;99.90
58582;DHT22;44361;51.476;5.700;2022-09-19T00:46:22;8.10;99.90
58582;DHT22;44361;51.476;5.700;2022-09-19T00:48:55;8.10;99.90
58582;DHT22;44361;51.476;5.700;2022-09-19T00:51:33;8.10;99.90
58582;DHT22;44361;51.476;5.700;2022-09-19T00:54:11;8.10;99.90
58582;DHT22;44361;51.476;5.700;2022-09-19T00:56:41;8.10;99.90
58582;DHT22;44361;51.476;5.700;2022-09-19T00:59:08;8.00;99.90
58582;DHT22;44361;51.476;5.700;2022-09-19T01:01:34;7.90;99.90
58582;DHT22;44361;51.476;5.700;2022-09-19T01:04:00;8.00;99.90
58582;DHT22;44361;51.476;5.700;2022-09-19T01:15:07;8.00;99.90
58582;DHT22;44361;51.476;5.700;2022-09-19T01:17:40;7.90;99.90
58582;DHT22;44361;51.476;5.700;2022-09-19T01:29:20;7.80;99.90
58582;DHT22;44361;51.476;5.700;2022-09-19T01:31:48;7.80;99.90
58582;DHT22;44361;51.476;5.700;2022-09-19T01:34:23;7.80;99.90
58582;DHT22;44361;51.476;5.700;2022-09-19T01:36:55;7.90;99.90
58582;DHT22;44361;51.476;5.700;2022-09-19T01:39:25;7.90;99.90
58582;DHT22;44361;51.476;5.700;2022-09-19T01:41:52;8.00;99.90
58582;DHT22;44361;51.476;5.700;2022-09-19T01:44:21;8.10;99.90
58582;DHT22;44361;51.476;5.700;2022-09-19T01:55:34;8.30;99.90
58582;DHT22;44361;51.476;5.700;2022-09-19T02:03:51;8.30;99.90
58582;DHT22;44361;51.476;5.700;2022-09-19T02:06:46;8.20;99.90
58582;DHT22;44361;51.476;5.700;2022-09-19T02:09:20;8.10;99.90
58582;DHT22;44361;51.476;5.700;2022-09-19T02:11:48;8.10;99.90
58582;DHT22;44361;51.476;5.700;2022-09-19T02:14:19;8.00;99.90
58582;DHT22;44361;51.476;5.700;2022-09-19T02:16:55;8.00;99.90
58582;DHT22;44361;51.476;5.700;2022-09-19T02:19:31;7.90;99.90
58582;DHT22;44361;51.476;5.700;2022-09-19T02:22:27;7.90;99.90
58582;DHT22;44361;51.476;5.700;2022-09-19T02:24:55;7.80;99.90
58582;DHT22;44361;51.476;5.700;2022-09-19T02:27:27;7.70;99.90
58582;DHT22;44361;51.476;5.700;2022-09-19T02:30:00;7.70;99.90
58582;DHT22;44361;51.476;5.700;2022-09-19T02:32:30;7.80;99.90
58582;DHT22;44361;51.476;5.700;2022-09-19T02:34:56;7.70;99.90
58582;DHT22;44361;51.476;5.700;2022-09-19T02:37:29;7.80;99.90
58582;DHT22;44361;51.476;5.700;2022-09-19T02:40:47;7.80;99.90
58582;DHT22;44361;51.476;5.700;2022-09-19T02:43:02;7.80;99.90
58582;DHT22;44361;51.476;5.700;2022-09-19T02:45:39;7.80;99.90
58582;DHT22;44361;51.476;5.700;2022-09-19T02:53:39;7.80;99.90
58582;DHT22;44361;51.476;5.700;2022-09-19T02:56:06;7.80;99.90
58582;DHT22;44361;51.476;5.700;2022-09-19T02:58:39;7.90;99.90
58582;DHT22;44361;51.476;5.700;2022-09-19T03:01:12;7.80;99.90
58582;DHT22;44361;51.476;5.700;2022-09-19T03:03:45;7.80;99.90
58582;DHT22;44361;51.476;5.700;2022-09-19T03:06:37;7.80;99.90
58582;DHT22;44361;51.476;5.700;2022-09-19T03:09:06;7.70;99.90
58582;DHT22;44361;51.476;5.700;2022-09-19T03:11:34;7.60;99.90
58582;DHT22;44361;51.476;5.700;2022-09-19T03:14:01;7.60;99.90
58582;DHT22;44361;51.476;5.700;2022-09-19T03:16:33;7.60;99.90
58582;DHT22;44361;51.476;5.700;2022-09-19T03:19:10;7.70;99.90
58582;DHT22;44361;51.476;5.700;2022-09-19T03:21:36;7.70;99.90
58582;DHT22;44361;51.476;5.700;2022-09-19T03:24:03;7.80;99.90
58582;DHT22;44361;51.476;5.700;2022-09-19T03:26:31;7.70;99.90
58582;DHT22;44361;51.476;5.700;2022-09-19T03:28:58;7.80;99.90
58582;DHT22;44361;51.476;5.700;2022-09-19T03:31:25;7.70;99.90
58582;DHT22;44361;51.476;5.700;2022-09-19T03:33:51;7.70;99.90
58582;DHT22;44361;51.476;5.700;2022-09-19T03:36:18;7.60;99.90
58582;DHT22;44361;51.476;5.700;2022-09-19T03:38:44;7.60;99.90
58582;DHT22;44361;51.476;5.700;2022-09-19T03:41:11;7.60;99.90
58582;DHT22;44361;51.476;5.700;2022-09-19T03:43:36;7.60;99.90
58582;DHT22;44361;51.476;5.700;2022-09-19T03:46:02;7.50;99.90
58582;DHT22;44361;51.476;5.700;2022-09-19T03:48:27;7.60;99.90
58582;DHT22;44361;51.476;5.700;2022-09-19T03:50:55;7.60;99.90
58582;DHT22;44361;51.476;5.700;2022-09-19T03:53:20;7.60;99.90
58582;DHT22;44361;51.476;5.700;2022-09-19T03:55:47;7.60;99.90
58582;DHT22;44361;51.476;5.700;2022-09-19T03:58:13;7.50;99.90
58582;DHT22;44361;51.476;5.700;2022-09-19T04:00:38;7.50;99.90
58582;DHT22;44361;51.476;5.700;2022-09-19T04:03:04;7.40;99.90
58582;DHT22;44361;51.476;5.700;2022-09-19T04:05:30;7.40;99.90
58582;DHT22;44361;51.476;5.700;2022-09-19T04:07:58;7.30;99.90
58582;DHT22;44361;51.476;5.700;2022-09-19T04:10:23;7.30;99.90
58582;DHT22;44361;51.476;5.700;2022-09-19T04:12:49;7.30;99.90
58582;DHT22;44361;51.476;5.700;2022-09-19T04:15:15;7.20;99.90
58582;DHT22;44361;51.476;5.700;2022-09-19T04:17:42;7.20;99.90
58582;DHT22;44361;51.476;5.700;2022-09-19T04:20:08;7.20;99.90
58582;DHT22;44361;51.476;5.700;2022-09-19T04:22:35;7.20;99.90
58582;DHT22;44361;51.476;5.700;2022-09-19T04:25:04;7.30;99.90
58582;DHT22;44361;51.476;5.700;2022-09-19T04:27:30;7.40;99.90
58582;DHT22;44361;51.476;5.700;2022-09-19T04:29:55;7.50;99.90
58582;DHT22;44361;51.476;5.700;2022-09-19T04:32:21;7.60;99.90
58582;DHT22;44361;51.476;5.700;2022-09-19T04:34:47;7.60;99.90
58582;DHT22;44361;51.476;5.700;2022-09-19T04:37:14;7.60;99.90
58582;DHT22;44361;51.476;5.700;2022-09-19T04:39:41;7.50;99.90
58582;DHT22;44361;51.476;5.700;2022-09-19T04:42:06;7.50;99.90
58582;DHT22;44361;51.476;5.700;2022-09-19T04:44:32;7.40;99.90
58582;DHT22;44361;51.476;5.700;2022-09-19T04:46:58;7.30;99.90
58582;DHT22;44361;51.476;5.700;2022-09-19T04:49:24;7.20;99.90
58582;DHT22;44361;51.476;5.700;2022-09-19T04:51:55;7.20;99.90
58582;DHT22;44361;51.476;5.700;2022-09-19T04:54:22;7.10;99.90
58582;DHT22;44361;51.476;5.700;2022-09-19T04:56:47;7.00;99.90
58582;DHT22;44361;51.476;5.700;2022-09-19T04:59:13;7.00;99.90
58582;DHT22;44361;51.476;5.700;2022-09-19T05:01:38;6.90;99.90
58582;DHT22;44361;51.476;5.700;2022-09-19T05:04:04;6.90;99.90
58582;DHT22;44361;51.476;5.700;2022-09-19T05:06:31;6.90;99.90
58582;DHT22;44361;51.476;5.700;2022-09-19T05:08:57;6.80;99.90
58582;DHT22;44361;51.476;5.700;2022-09-19T05:11:25;6.80;99.90
58582;DHT22;44361;51.476;5.700;2022-09-19T05:13:51;6.80;99.90
58582;DHT22;44361;51.476;5.700;2022-09-19T05:16:18;6.80;99.90
58582;DHT22;44361;51.476;5.700;2022-09-19T05:18:44;6.70;99.90
58582;DHT22;44361;51.476;5.700;2022-09-19T05:21:12;6.80;99.90
58582;DHT22;44361;51.476;5.700;2022-09-19T05:23:39;6.80;99.90
58582;DHT22;44361;51.476;5.700;2022-09-19T05:26:09;6.90;99.90
58582;DHT22;44361;51.476;5.700;2022-09-19T05:28:36;6.90;99.90
58582;DHT22;44361;51.476;5.700;2022-09-19T05:31:01;7.00;99.90
58582;DHT22;44361;51.476;5.700;2022-09-19T05:33:31;7.10;99.90
58582;DHT22;44361;51.476;5.700;2022-09-19T05:35:59;7.10;99.90
58582;DHT22;44361;51.476;5.700;2022-09-19T05:38:26;7.20;99.90
58582;DHT22;44361;51.476;5.700;2022-09-19T05:40:53;7.10;99.90
58582;DHT22;44361;51.476;5.700;2022-09-19T05:43:19;7.20;99.90
58582;DHT22;44361;51.476;5.700;2022-09-19T05:45:44;7.30;99.90
58582;DHT22;44361;51.476;5.700;2022-09-19T05:48:10;7.30;99.90
58582;DHT22;44361;51.476;5.700;2022-09-19T05:50:36;7.30;99.90
58582;DHT22;44361;51.476;5.700;2022-09-19T05:53:02;7.20;99.90
58582;DHT22;44361;51.476;5.700;2022-09-19T05:55:46;7.40;99.90
58582;DHT22;44361;51.476;5.700;2022-09-19T05:58:12;7.60;99.90
58582;DHT22;44361;51.476;5.700;2022-09-19T06:00:42;7.70;99.90
58582;DHT22;44361;51.476;5.700;2022-09-19T06:03:10;7.90;99.90
58582;DHT22;44361;51.476;5.700;2022-09-19T06:05:41;8.10;99.90
58582;DHT22;44361;51.476;5.700;2022-09-19T06:08:08;8.30;99.90
58582;DHT22;44361;51.476;5.700;2022-09-19T06:10:36;8.50;99.90
58582;DHT22;44361;51.476;5.700;2022-09-19T06:13:04;8.50;99.90
58582;DHT22;44361;51.476;5.700;2022-09-19T06:15:29;8.40;99.90
58582;DHT22;44361;51.476;5.700;2022-09-19T06:17:56;8.40;99.90
58582;DHT22;44361;51.476;5.700;2022-09-19T06:20:22;8.40;99.90
58582;DHT22;44361;51.476;5.700;2022-09-19T06:22:48;8.40;99.90
58582;DHT22;44361;51.476;5.700;2022-09-19T06:25:15;8.40;99.90
58582;DHT22;44361;51.476;5.700;2022-09-19T06:27:41;8.60;99.90
58582;DHT22;44361;51.476;5.700;2022-09-19T06:30:12;8.90;99.90
58582;DHT22;44361;51.476;5.700;2022-09-19T06:32:38;9.00;99.90
58582;DHT22;44361;51.476;5.700;2022-09-19T06:35:04;9.20;99.90
58582;DHT22;44361;51.476;5.700;2022-09-19T06:37:30;9.40;99.90
58582;DHT22;44361;51.476;5.700;2022-09-19T06:39:55;9.40;99.90
58582;DHT22;44361;51.476;5.700;2022-09-19T06:42:22;9.50;99.90
58582;DHT22;44361;51.476;5.700;2022-09-19T06:44:48;9.50;99.90
58582;DHT22;44361;51.476;5.700;2022-09-19T06:47:14;9.50;99.90
58582;DHT22;44361;51.476;5.700;2022-09-19T06:49:41;9.50;99.90
58582;DHT22;44361;51.476;5.700;2022-09-19T06:52:06;9.70;99.90
58582;DHT22;44361;51.476;5.700;2022-09-19T06:54:32;10.00;99.90
58582;DHT22;44361;51.476;5.700;2022-09-19T06:56:57;10.20;99.90
58582;DHT22;44361;51.476;5.700;2022-09-19T06:59:23;10.30;99.90
58582;DHT22;44361;51.476;5.700;2022-09-19T07:01:48;10.20;99.90
58582;DHT22;44361;51.476;5.700;2022-09-19T07:04:15;10.20;99.90
58582;DHT22;44361;51.476;5.700;2022-09-19T07:06:40;10.20;99.90
58582;DHT22;44361;51.476;5.700;2022-09-19T07:09:06;10.20;99.90
58582;DHT22;44361;51.476;5.700;2022-09-19T07:11:34;10.40;99.90
58582;DHT22;44361;51.476;5.700;2022-09-19T07:14:01;10.50;99.90
58582;DHT22;44361;51.476;5.700;2022-09-19T07:16:27;10.60;99.90
58582;DHT22;44361;51.476;5.700;2022-09-19T07:18:53;10.60;99.90
58582;DHT22;44361;51.476;5.700;2022-09-19T07:21:18;10.70;99.90
58582;DHT22;44361;51.476;5.700;2022-09-19T07:23:44;10.90;99.90
58582;DHT22;44361;51.476;5.700;2022-09-19T07:26:10;11.00;99.90
58582;DHT22;44361;51.476;5.700;2022-09-19T07:28:35;11.10;99.90
58582;DHT22;44361;51.476;5.700;2022-09-19T07:31:01;11.30;99.90
58582;DHT22;44361;51.476;5.700;2022-09-19T07:33:27;11.50;99.90
58582;DHT22;44361;51.476;5.700;2022-09-19T07:35:54;11.80;99.90
58582;DHT22;44361;51.476;5.700;2022-09-19T07:38:22;12.00;99.90
58582;DHT22;44361;51.476;5.700;2022-09-19T07:40:49;12.20;99.90
58582;DHT22;44361;51.476;5.700;2022-09-19T07:43:16;12.40;99.90
58582;DHT22;44361;51.476;5.700;2022-09-19T07:45:44;12.50;99.90
58582;DHT22;44361;51.476;5.700;2022-09-19T07:48:10;12.50;99.90
58582;DHT22;44361;51.476;5.700;2022-09-19T07:50:36;12.50;99.90
58582;DHT22;44361;51.476;5.700;2022-09-19T07:53:05;12.50;99.90
58582;DHT22;44361;51.476;5.700;2022-09-19T07:55:32;12.50;99.90
58582;DHT22;44361;51.476;5.700;2022-09-19T07:57:59;12.60;99.90
58582;DHT22;44361;51.476;5.700;2022-09-19T08:00:29;12.70;99.90
58582;DHT22;44361;51.476;5.700;2022-09-19T08:03:05;12.80;99.90
58582;DHT22;44361;51.476;5.700;2022-09-19T08:05:36;12.80;99.90
58582;DHT22;44361;51.476;5.700;2022-09-19T08:08:04;12.70;99.90
58582;DHT22;44361;51.476;5.700;2022-09-19T08:10:30;12.70;99.90
58582;DHT22;44361;51.476;5.700;2022-09-19T08:13:00;12.80;99.90
58582;DHT22;44361;51.476;5.700;2022-09-19T08:15:26;12.80;99.90
58582;DHT22;44361;51.476;5.700;2022-09-19T08:17:58;12.80;99.90
58582;DHT22;44361;51.476;5.700;2022-09-19T08:20:30;12.90;99.90
58582;DHT22;44361;51.476;5.700;2022-09-19T08:23:01;13.00;99.90
58582;DHT22;44361;51.476;5.700;2022-09-19T08:25:29;13.20;99.90
58582;DHT22;44361;51.476;5.700;2022-09-19T08:27:56;13.40;99.90
58582;DHT22;44361;51.476;5.700;2022-09-19T08:30:22;13.50;99.90
58582;DHT22;44361;51.476;5.700;2022-09-19T08:32:48;13.60;99.90
58582;DHT22;44361;51.476;5.700;2022-09-19T08:35:19;13.60;99.90
58582;DHT22;44361;51.476;5.700;2022-09-19T08:37:45;13.80;99.90
58582;DHT22;44361;51.476;5.700;2022-09-19T08:40:19;13.80;99.90
58582;DHT22;44361;51.476;5.700;2022-09-19T08:48:03;13.80;99.90
58582;DHT22;44361;51.476;5.700;2022-09-19T08:50:34;14.00;99.90
58582;DHT22;44361;51.476;5.700;2022-09-19T08:53:03;14.10;99.90
58582;DHT22;44361;51.476;5.700;2022-09-19T08:55:34;14.30;99.90
58582;DHT22;44361;51.476;5.700;2022-09-19T08:58:06;14.60;99.90
58582;DHT22;44361;51.476;5.700;2022-09-19T09:00:38;14.70;99.90
58582;DHT22;44361;51.476;5.700;2022-09-19T09:03:14;14.90;99.90
58582;DHT22;44361;51.476;5.700;2022-09-19T09:05:57;14.90;99.90
58582;DHT22;44361;51.476;5.700;2022-09-19T09:11:11;15.10;99.90
58582;DHT22;44361;51.476;5.700;2022-09-19T09:22:19;15.20;99.90
58582;DHT22;44361;51.476;5.700;2022-09-19T09:24:53;15.40;99.90
58582;DHT22;44361;51.476;5.700;2022-09-19T09:27:24;15.10;99.90
58582;DHT22;44361;51.476;5.700;2022-09-19T09:29:56;14.80;99.90
58582;DHT22;44361;51.476;5.700;2022-09-19T09:32:43;14.60;99.90
58582;DHT22;44361;51.476;5.700;2022-09-19T09:35:14;14.50;99.90
58582;DHT22;44361;51.476;5.700;2022-09-19T09:37:47;14.70;99.90
58582;DHT22;44361;51.476;5.700;2022-09-19T09:40:28;14.90;99.90
58582;DHT22;44361;51.476;5.700;2022-09-19T09:43:15;15.00;99.90
58582;DHT22;44361;51.476;5.700;2022-09-19T09:45:47;15.10;99.90
58582;DHT22;44361;51.476;5.700;2022-09-19T09:56:45;15.50;99.90
58582;DHT22;44361;51.476;5.700;2022-09-19T09:59:34;15.60;99.90
58582;DHT22;44361;51.476;5.700;2022-09-19T10:02:39;15.70;99.90
58582;DHT22;44361;51.476;5.700;2022-09-19T10:05:32;15.70;99.90
58582;DHT22;44361;51.476;5.700;2022-09-19T10:08:36;16.00;99.90
58582;DHT22;44361;51.476;5.700;2022-09-19T10:11:16;16.20;99.90
58582;DHT22;44361;51.476;5.700;2022-09-19T10:13:50;16.20;99.90
58582;DHT22;44361;51.476;5.700;2022-09-19T10:16:22;16.10;99.90
58582;DHT22;44361;51.476;5.700;2022-09-19T10:18:52;15.90;99.90
58582;DHT22;44361;51.476;5.700;2022-09-19T10:21:19;16.20;99.90
58582;DHT22;44361;51.476;5.700;2022-09-19T10:23:45;16.70;99.90
58582;DHT22;44361;51.476;5.700;2022-09-19T10:26:13;17.30;99.90
58582;DHT22;44361;51.476;5.700;2022-09-19T10:28:50;17.50;99.90
58582;DHT22;44361;51.476;5.700;2022-09-19T10:31:28;17.70;99.90
58582;DHT22;44361;51.476;5.700;2022-09-19T10:33:57;17.40;99.90
58582;DHT22;44361;51.476;5.700;2022-09-19T10:36:28;17.00;99.90
58582;DHT22;44361;51.476;5.700;2022-09-19T10:39:07;16.00;99.90
58582;DHT22;44361;51.476;5.700;2022-09-19T10:41:35;14.70;99.90
58582;DHT22;44361;51.476;5.700;2022-09-19T10:44:02;13.60;99.90
58582;DHT22;44361;51.476;5.700;2022-09-19T10:46:46;13.10;99.90
58582;DHT22;44361;51.476;5.700;2022-09-19T10:49:21;13.00;99.90
58582;DHT22;44361;51.476;5.700;2022-09-19T10:51:50;13.10;99.90
58582;DHT22;44361;51.476;5.700;2022-09-19T10:54:34;13.20;99.90
58582;DHT22;44361;51.476;5.700;2022-09-19T10:57:02;13.60;99.90
58582;DHT22;44361;51.476;5.700;2022-09-19T10:59:34;13.80;99.90
58582;DHT22;44361;51.476;5.700;2022-09-19T11:02:16;14.10;99.90
58582;DHT22;44361;51.476;5.700;2022-09-19T11:04:57;14.50;99.90
58582;DHT22;44361;51.476;5.700;2022-09-19T11:07:41;14.70;99.90
58582;DHT22;44361;51.476;5.700;2022-09-19T11:10:38;14.80;99.90
58582;DHT22;44361;51.476;5.700;2022-09-19T11:13:06;15.00;99.90
58582;DHT22;44361;51.476;5.700;2022-09-19T11:15:35;15.10;99.90
58582;DHT22;44361;51.476;5.700;2022-09-19T11:18:43;15.30;99.90
58582;DHT22;44361;51.476;5.700;2022-09-19T11:26:40;15.00;99.90
58582;DHT22;44361;51.476;5.700;2022-09-19T11:32:28;15.10;99.90
58582;DHT22;44361;51.476;5.700;2022-09-19T11:43:15;16.10;99.90
58582;DHT22;44361;51.476;5.700;2022-09-19T11:51:55;16.60;99.90
58582;DHT22;44361;51.476;5.700;2022-09-19T11:57:31;16.40;99.90
58582;DHT22;44361;51.476;5.700;2022-09-19T12:02:47;16.20;99.90
58582;DHT22;44361;51.476;5.700;2022-09-19T12:11:14;16.00;99.90
58582;DHT22;44361;51.476;5.700;2022-09-19T12:16:18;16.00;99.90
58582;DHT22;44361;51.476;5.700;2022-09-19T12:18:49;16.00;99.90
58582;DHT22;44361;51.476;5.700;2022-09-19T12:21:19;16.20;99.90
58582;DHT22;44361;51.476;5.700;2022-09-19T12:23:51;16.30;99.90
58582;DHT22;44361;51.476;5.700;2022-09-19T12:29:25;16.40;99.90
58582;DHT22;44361;51.476;5.700;2022-09-19T12:32:05;16.30;99.90
58582;DHT22;44361;51.476;5.700;2022-09-19T12:34:40;16.40;99.90
58582;DHT22;44361;51.476;5.700;2022-09-19T12:37:54;16.80;99.90
58582;DHT22;44361;51.476;5.700;2022-09-19T12:46:22;17.20;99.90
58582;DHT22;44361;51.476;5.700;2022-09-19T12:54:44;18.10;99.90
58582;DHT22;44361;51.476;5.700;2022-09-19T12:57:44;17.80;99.90
58582;DHT22;44361;51.476;5.700;2022-09-19T13:00:12;17.30;99.90
58582;DHT22;44361;51.476;5.700;2022-09-19T13:02:46;16.30;99.90
58582;DHT22;44361;51.476;5.700;2022-09-19T13:05:20;15.30;99.90
58582;DHT22;44361;51.476;5.700;2022-09-19T13:08:11;14.90;99.90
58582;DHT22;44361;51.476;5.700;2022-09-19T13:10:59;14.80;99.90
58582;DHT22;44361;51.476;5.700;2022-09-19T13:13:33;14.80;99.90
58582;DHT22;44361;51.476;5.700;2022-09-19T13:16:06;14.90;99.90
58582;DHT22;44361;51.476;5.700;2022-09-19T13:18:33;14.70;99.90
58582;DHT22;44361;51.476;5.700;2022-09-19T13:21:21;14.90;99.90
58582;DHT22;44361;51.476;5.700;2022-09-19T13:24:09;15.10;99.90
58582;DHT22;44361;51.476;5.700;2022-09-19T13:26:37;15.20;99.90
58582;DHT22;44361;51.476;5.700;2022-09-19T13:29:06;15.40;99.90
58582;DHT22;44361;51.476;5.700;2022-09-19T13:36:59;15.90;99.90
58582;DHT22;44361;51.476;5.700;2022-09-19T13:51:41;16.70;99.90
58582;DHT22;44361;51.476;5.700;2022-09-19T13:59:26;17.00;99.90
58582;DHT22;44361;51.476;5.700;2022-09-19T14:02:05;16.80;99.90
58582;DHT22;44361;51.476;5.700;2022-09-19T14:04:57;16.50;99.90
58582;DHT22;44361;51.476;5.700;2022-09-19T14:09:57;16.10;99.90
58582;DHT22;44361;51.476;5.700;2022-09-19T14:15:30;16.00;99.90
58582;DHT22;44361;51.476;5.700;2022-09-19T14:20:54;16.40;99.90
58582;DHT22;44361;51.476;5.700;2022-09-19T14:23:22;16.50;99.90
58582;DHT22;44361;51.476;5.700;2022-09-19T14:46:12;16.60;99.90
58582;DHT22;44361;51.476;5.700;2022-09-19T14:49:10;16.50;99.90
58582;DHT22;44361;51.476;5.700;2022-09-19T14:51:38;16.40;99.90
58582;DHT22;44361;51.476;5.700;2022-09-19T14:54:26;16.30;99.90
58582;DHT22;44361;51.476;5.700;2022-09-19T14:57:05;16.30;99.90
58582;DHT22;44361;51.476;5.700;2022-09-19T14:59:35;16.30;99.90
58582;DHT22;44361;51.476;5.700;2022-09-19T15:04:48;16.30;99.90
58582;DHT22;44361;51.476;5.700;2022-09-19T15:07:17;16.40;99.90
58582;DHT22;44361;51.476;5.700;2022-09-19T15:09:43;16.40;99.90
58582;DHT22;44361;51.476;5.700;2022-09-19T15:12:15;16.30;99.90
58582;DHT22;44361;51.476;5.700;2022-09-19T15:14:46;16.30;99.90
58582;DHT22;44361;51.476;5.700;2022-09-19T15:17:16;16.30;99.90
58582;DHT22;44361;51.476;5.700;2022-09-19T15:19:45;16.10;99.90
58582;DHT22;44361;51.476;5.700;2022-09-19T15:24:47;16.00;99.30
58582;DHT22;44361;51.476;5.700;2022-09-19T15:27:17;15.90;99.90
58582;DHT22;44361;51.476;5.700;2022-09-19T15:29:44;15.90;99.90
58582;DHT22;44361;51.476;5.700;2022-09-19T15:32:28;15.70;99.90
58582;DHT22;44361;51.476;5.700;2022-09-19T15:35:05;15.60;99.90
58582;DHT22;44361;51.476;5.700;2022-09-19T15:37:35;15.60;99.90
58582;DHT22;44361;51.476;5.700;2022-09-19T15:40:01;15.60;99.90
58582;DHT22;44361;51.476;5.700;2022-09-19T15:42:28;15.70;99.90
58582;DHT22;44361;51.476;5.700;2022-09-19T15:44:55;15.70;99.90
58582;DHT22;44361;51.476;5.700;2022-09-19T15:47:26;15.50;99.90
58582;DHT22;44361;51.476;5.700;2022-09-19T15:49:57;15.50;99.90
58582;DHT22;44361;51.476;5.700;2022-09-19T15:52:32;15.40;99.90
58582;DHT22;44361;51.476;5.700;2022-09-19T15:54:59;15.40;99.90
58582;DHT22;44361;51.476;5.700;2022-09-19T15:57:28;15.50;99.90
58582;DHT22;44361;51.476;5.700;2022-09-19T16:00:22;15.50;99.90
58582;DHT22;44361;51.476;5.700;2022-09-19T16:02:52;15.50;99.90
58582;DHT22;44361;51.476;5.700;2022-09-19T16:05:22;15.30;99.90
58582;DHT22;44361;51.476;5.700;2022-09-19T16:07:49;15.10;99.90
58582;DHT22;44361;51.476;5.700;2022-09-19T16:10:37;15.00;99.90
58582;DHT22;44361;51.476;5.700;2022-09-19T16:13:30;15.00;99.90
58582;DHT22;44361;51.476;5.700;2022-09-19T16:15:52;15.00;99.90
58582;DHT22;44361;51.476;5.700;2022-09-19T16:18:18;15.00;99.90
58582;DHT22;44361;51.476;5.700;2022-09-19T16:20:52;15.00;99.90
58582;DHT22;44361;51.476;5.700;2022-09-19T16:23:21;15.20;99.90
58582;DHT22;44361;51.476;5.700;2022-09-19T16:25:52;15.30;99.90
58582;DHT22;44361;51.476;5.700;2022-09-19T16:31:02;15.40;99.90
58582;DHT22;44361;51.476;5.700;2022-09-19T16:33:36;15.40;99.90
58582;DHT22;44361;51.476;5.700;2022-09-19T16:36:09;15.20;99.90
58582;DHT22;44361;51.476;5.700;2022-09-19T16:38:36;15.20;99.90
58582;DHT22;44361;51.476;5.700;2022-09-19T16:41:06;15.00;99.90
58582;DHT22;44361;51.476;5.700;2022-09-19T16:43:38;14.90;99.90
58582;DHT22;44361;51.476;5.700;2022-09-19T16:46:10;14.80;99.90
58582;DHT22;44361;51.476;5.700;2022-09-19T16:48:37;14.70;99.90
58582;DHT22;44361;51.476;5.700;2022-09-19T16:51:03;14.70;99.90
58582;DHT22;44361;51.476;5.700;2022-09-19T16:53:32;14.60;99.90
58582;DHT22;44361;51.476;5.700;2022-09-19T16:55:58;14.50;99.90
58582;DHT22;44361;51.476;5.700;2022-09-19T16:58:24;14.50;99.90
58582;DHT22;44361;51.476;5.700;2022-09-19T17:00:50;14.50;99.90
58582;DHT22;44361;51.476;5.700;2022-09-19T17:03:15;14.40;99.90
58582;DHT22;44361;51.476;5.700;2022-09-19T17:05:42;14.40;99.90
58582;DHT22;44361;51.476;5.700;2022-09-19T17:08:08;14.40;99.90
58582;DHT22;44361;51.476;5.700;2022-09-19T17:10:35;14.30;99.90
58582;DHT22;44361;51.476;5.700;2022-09-19T17:13:02;14.30;99.90
58582;DHT22;44361;51.476;5.700;2022-09-19T17:17:58;14.10;99.90
58582;DHT22;44361;51.476;5.700;2022-09-19T17:20:24;14.00;99.90
58582;DHT22;44361;51.476;5.700;2022-09-19T17:22:50;14.00;99.90
58582;DHT22;44361;51.476;5.700;2022-09-19T17:25:35;13.90;99.90
58582;DHT22;44361;51.476;5.700;2022-09-19T17:28:04;13.90;99.90
58582;DHT22;44361;51.476;5.700;2022-09-19T17:30:29;13.80;99.90
58582;DHT22;44361;51.476;5.700;2022-09-19T17:32:55;13.70;99.90
58582;DHT22;44361;51.476;5.700;2022-09-19T17:35:21;13.60;99.90
58582;DHT22;44361;51.476;5.700;2022-09-19T17:37:46;13.70;99.90
58582;DHT22;44361;51.476;5.700;2022-09-19T17:40:12;13.60;99.90
58582;DHT22;44361;51.476;5.700;2022-09-19T17:42:39;13.50;99.90
58582;DHT22;44361;51.476;5.700;2022-09-19T17:45:06;13.50;99.90
58582;DHT22;44361;51.476;5.700;2022-09-19T17:47:32;13.40;99.90
58582;DHT22;44361;51.476;5.700;2022-09-19T17:49:57;13.30;99.90
58582;DHT22;44361;51.476;5.700;2022-09-19T17:52:24;13.30;99.90
58582;DHT22;44361;51.476;5.700;2022-09-19T17:54:52;13.20;99.90
58582;DHT22;44361;51.476;5.700;2022-09-19T17:57:18;13.20;99.90
58582;DHT22;44361;51.476;5.700;2022-09-19T17:59:44;13.10;99.90
58582;DHT22;44361;51.476;5.700;2022-09-19T18:02:10;13.00;99.90
58582;DHT22;44361;51.476;5.700;2022-09-19T18:04:54;13.00;99.90
58582;DHT22;44361;51.476;5.700;2022-09-19T18:07:21;13.00;99.90
58582;DHT22;44361;51.476;5.700;2022-09-19T18:09:47;12.90;99.90
58582;DHT22;44361;51.476;5.700;2022-09-19T18:12:13;12.90;99.90
58582;DHT22;44361;51.476;5.700;2022-09-19T18:14:40;12.90;99.90
58582;DHT22;44361;51.476;5.700;2022-09-19T18:17:06;12.90;99.90
58582;DHT22;44361;51.476;5.700;2022-09-19T18:19:31;13.00;99.90
58582;DHT22;44361;51.476;5.700;2022-09-19T18:21:58;13.00;99.90
58582;DHT22;44361;51.476;5.700;2022-09-19T18:24:23;13.00;99.90
58582;DHT22;44361;51.476;5.700;2022-09-19T18:26:49;13.10;99.90
58582;DHT22;44361;51.476;5.700;2022-09-19T18:29:15;13.10;99.90
58582;DHT22;44361;51.476;5.700;2022-09-19T18:31:41;13.10;99.90
58582;DHT22;44361;51.476;5.700;2022-09-19T18:34:08;13.10;99.90
58582;DHT22;44361;51.476;5.700;2022-09-19T18:36:33;13.10;99.90
58582;DHT22;44361;51.476;5.700;2022-09-19T18:39:00;13.10;99.90
58582;DHT22;44361;51.476;5.700;2022-09-19T18:41:26;13.10;99.90
58582;DHT22;44361;51.476;5.700;2022-09-19T18:43:52;13.00;99.90
58582;DHT22;44361;51.476;5.700;2022-09-19T18:46:19;13.00;99.90
58582;DHT22;44361;51.476;5.700;2022-09-19T18:48:47;13.00;99.90
58582;DHT22;44361;51.476;5.700;2022-09-19T18:51:17;13.00;99.90
58582;DHT22;44361;51.476;5.700;2022-09-19T18:53:46;12.90;99.90
58582;DHT22;44361;51.476;5.700;2022-09-19T18:56:12;13.00;99.90
58582;DHT22;44361;51.476;5.700;2022-09-19T18:58:38;13.10;99.90